OMD208 KLAS-KGYR
Flight info
| Callsign | OMD208 |
|---|---|
| Flight time | N/A |
| Altitude | 39000 |
| Route | RASLR3 ZAYNE DRK DSERT DSERT2 |
| Aircraft | A20N/M-SDE2E3FGHIRWXY/LB1 |
Departure
| Time | N/A |
|---|---|
| Airport | Harry Reid International Airport (KLAS) |
Arrival
| Time | 2026-05-07 02:14 |
|---|---|
| Airport | Phoenix Goodyear Airport (KGYR) |
| Time | Latitude | Longitude | Altitude | Speed | Heading |
|---|---|---|---|---|---|
| 2026-05-07 02:08 | 33.50841 | -112.20785 | 1896 ft | 119 kts | 260° |
| 2026-05-07 02:10 | 33.50818 | -112.21008 | 1820 ft | 119 kts | 259° |
| 2026-05-07 02:10 | 33.50713 | -112.21993 | 1494 ft | 118 kts | 259° |
| 2026-05-07 02:10 | 33.50639 | -112.22979 | 1623 ft | 148 kts | 259° |
| 2026-05-07 02:10 | 33.50472 | -112.24462 | 1943 ft | 205 kts | 261° |
| 2026-05-07 02:11 | 33.50268 | -112.26255 | 2618 ft | 224 kts | 262° |
| 2026-05-07 02:11 | 33.50077 | -112.27989 | 2865 ft | 195 kts | 262° |
| 2026-05-07 02:11 | 33.49840 | -112.29461 | 2746 ft | 169 kts | 253° |
| 2026-05-07 02:11 | 33.49357 | -112.30707 | 2566 ft | 170 kts | 237° |
| 2026-05-07 02:12 | 33.48547 | -112.31750 | 2480 ft | 162 kts | 221° |
| 2026-05-07 02:12 | 33.47685 | -112.32535 | 2292 ft | 151 kts | 217° |
| 2026-05-07 02:12 | 33.46864 | -112.33243 | 2110 ft | 140 kts | 220° |
| 2026-05-07 02:12 | 33.46127 | -112.33975 | 1839 ft | 137 kts | 221° |
| 2026-05-07 02:13 | 33.45387 | -112.34678 | 1569 ft | 135 kts | 217° |
| 2026-05-07 02:13 | 33.44644 | -112.35373 | 1359 ft | 134 kts | 220° |
| 2026-05-07 02:13 | 33.43936 | -112.36057 | 1152 ft | 126 kts | 218° |
| 2026-05-07 02:13 | 33.43265 | -112.36655 | 999 ft | 117 kts | 219° |
| 2026-05-07 02:14 | 33.42703 | -112.37187 | 968 ft | 68 kts | 218° |
| 2026-05-07 02:14 | 33.42538 | -112.37338 | 968 ft | 11 kts | 204° |
| 2026-05-07 02:14 | 33.42454 | -112.37361 | 965 ft | 14 kts | 182° |
| 2026-05-07 02:14 | 33.42384 | -112.37348 | 964 ft | 0 kts | 139° |
| 2026-05-07 02:16 | 33.42383 | -112.37346 | 974 ft | 1 kts | 137° |
| 2026-05-07 02:17 | 33.42377 | -112.37335 | 980 ft | 1 kts | 94° |
| 2026-05-07 02:17 | 33.42401 | -112.37301 | 976 ft | 11 kts | 36° |
| 2026-05-07 02:17 | 33.42493 | -112.37221 | 979 ft | 19 kts | 35° |
| 2026-05-07 02:17 | 33.42596 | -112.37124 | 974 ft | 20 kts | 40° |
| 2026-05-07 02:18 | 33.42715 | -112.37009 | 969 ft | 24 kts | 38° |
| 2026-05-07 02:18 | 33.42786 | -112.36933 | 966 ft | 9 kts | 61° |
| 2026-05-07 02:18 | 33.42767 | -112.36872 | 966 ft | 9 kts | 127° |
| 2026-05-07 02:18 | 33.42758 | -112.36857 | 965 ft | 0 kts | 127° |